Time;durP1;ratioP1;P1;durP2;ratioP2;P2;SDS_P1;SDS_P2;PMS_P1;PMS_P2;Temp;Humidity;BMP_temperature;BMP_pressure;BME280_temperature;BME280_humidity;BME280_pressure;Samples;Min_cycle;Max_cycle;Signal;HPM_P1;HPM_P2
2021/06/15 00:00:55;;;;;;;17.00;10.80;;;20.10;54.70;;;;;;5022911;28;20110;-85
2021/06/15 00:03:20;;;;;;;17.60;11.05;;;20.20;54.40;;;;;;5020650;28;20029;-85
2021/06/15 00:05:46;;;;;;;15.65;9.75;;;20.10;54.70;;;;;;5057076;28;20029;-85
2021/06/15 00:08:11;;;;;;;11.63;9.35;;;20.00;54.80;;;;;;5027775;28;20033;-84
2021/06/15 00:10:37;;;;;;;16.15;10.45;;;20.00;55.50;;;;;;5041880;28;20156;-85
2021/06/15 00:13:03;;;;;;;12.45;9.43;;;19.90;55.40;;;;;;5047113;28;20040;-85
2021/06/15 00:15:28;;;;;;;11.65;8.60;;;19.90;59.10;;;;;;5025701;28;20041;-85
2021/06/15 00:17:54;;;;;;;13.27;9.05;;;19.90;55.40;;;;;;5026792;28;20033;-84
2021/06/15 00:20:20;;;;;;;6.88;5.32;;;20.00;54.90;;;;;;5025115;28;20037;-84
2021/06/15 00:22:46;;;;;;;9.88;5.38;;;19.90;54.40;;;;;;5039766;28;20040;-85
2021/06/15 00:25:12;;;;;;;6.72;5.10;;;19.80;54.30;;;;;;5032087;28;20089;-84
2021/06/15 00:27:38;;;;;;;12.45;8.25;;;19.70;54.60;;;;;;5026511;28;20036;-84
2021/06/15 00:30:05;;;;;;;13.23;8.02;;;19.70;54.60;;;;;;5023777;28;20033;-85
2021/06/15 00:32:30;;;;;;;8.32;6.72;;;19.60;54.60;;;;;;5042061;28;20043;-85
2021/06/15 00:34:56;;;;;;;11.50;8.45;;;19.50;54.40;;;;;;5039762;28;20044;-85
2021/06/15 00:37:21;;;;;;;6.07;5.47;;;19.50;55.30;;;;;;5030150;28;20124;-85
2021/06/15 00:39:48;;;;;;;8.50;6.13;;;19.40;54.70;;;;;;5021199;28;20123;-84
2021/06/15 00:42:14;;;;;;;9.20;7.80;;;19.40;54.70;;;;;;5028226;28;20036;-83
2021/06/15 00:44:39;;;;;;;12.98;9.68;;;19.40;54.80;;;;;;5024339;28;20082;-85
2021/06/15 00:47:05;;;;;;;17.05;9.38;;;19.30;55.70;;;;;;5041277;28;20115;-85
2021/06/15 00:49:35;;;;;;;15.02;10.20;;;19.20;55.30;;;;;;5027177;28;20124;-85
2021/06/15 00:52:01;;;;;;;14.82;11.52;;;19.20;55.30;;;;;;5040807;28;20043;-84
2021/06/15 00:54:26;;;;;;;13.98;9.85;;;19.10;56.30;;;;;;5020246;28;20029;-84
2021/06/15 00:56:52;;;;;;;12.65;9.50;;;19.10;57.30;;;;;;5023929;28;20421;-84
2021/06/15 00:59:17;;;;;;;8.30;6.57;;;19.10;55.20;;;;;;5028085;28;20087;-85
2021/06/15 01:01:43;;;;;;;7.97;6.65;;;19.30;55.20;;;;;;5044251;28;20440;-84
2021/06/15 01:04:09;;;;;;;9.70;7.68;;;19.10;54.90;;;;;;5031140;28;20095;-85
2021/06/15 01:06:42;;;;;;;14.20;9.23;;;19.00;55.30;;;;;;5022677;28;20238;-85
2021/06/15 01:09:52;;;;;;;15.05;10.63;;;18.80;55.50;;;;;;5022061;28;20035;-85
2021/06/15 01:12:48;;;;;;;13.40;9.35;;;18.80;55.60;;;;;;5038668;28;20484;-84
2021/06/15 01:15:17;;;;;;;15.30;9.93;;;18.70;55.40;;;;;;5028716;28;20036;-84
2021/06/15 01:17:47;;;;;;;21.08;10.40;;;18.70;55.40;;;;;;5072022;28;20028;-84
2021/06/15 01:20:23;;;;;;;11.25;9.18;;;18.70;55.60;;;;;;5054326;28;20492;-84
2021/06/15 01:23:10;;;;;;;7.32;6.00;;;18.70;55.50;;;;;;5045424;28;20044;-84
2021/06/15 01:26:03;;;;;;;13.38;10.27;;;18.70;56.00;;;;;;5073884;28;20073;-84
2021/06/15 01:28:36;;;;;;;15.68;11.00;;;18.60;55.60;;;;;;5038111;28;20048;-84
2021/06/15 01:31:07;;;;;;;13.68;10.77;;;18.20;58.50;;;;;;5040083;28;20272;-84
2021/06/15 01:33:36;;;;;;;19.30;11.13;;;18.10;59.10;;;;;;5029291;28;20064;-84
2021/06/15 01:36:01;;;;;;;16.83;10.50;;;18.20;58.10;;;;;;5057838;28;20133;-84
2021/06/15 01:38:37;;;;;;;14.43;10.27;;;18.20;57.10;;;;;;5043329;28;20029;-84
2021/06/15 01:41:07;;;;;;;17.70;10.82;;;18.30;57.60;;;;;;5050632;28;20035;-84
2021/06/15 01:43:35;;;;;;;19.23;9.30;;;18.20;57.30;;;;;;5048701;28;20029;-84
2021/06/15 01:46:02;;;;;;;14.68;9.55;;;18.30;56.50;;;;;;5041284;28;20036;-84
2021/06/15 01:48:56;;;;;;;8.10;6.30;;;18.20;56.40;;;;;;5040336;28;20390;-84
2021/06/15 01:51:22;;;;;;;15.52;9.35;;;18.20;56.40;;;;;;5056942;28;20528;-83
2021/06/15 01:53:58;;;;;;;10.63;7.53;;;18.30;56.40;;;;;;5038159;28;20044;-83
2021/06/15 01:56:26;;;;;;;13.32;9.57;;;18.20;56.50;;;;;;5045593;28;20075;-83
2021/06/15 01:58:52;;;;;;;17.23;9.73;;;18.10;56.70;;;;;;5034087;28;20477;-83
2021/06/15 02:01:18;;;;;;;8.85;6.18;;;18.10;56.90;;;;;;5028581;28;20024;-83
2021/06/15 02:03:44;;;;;;;9.60;6.45;;;18.00;57.00;;;;;;5024759;28;20452;-83
2021/06/15 02:06:09;;;;;;;12.95;8.90;;;18.00;56.80;;;;;;5027520;28;20078;-83
2021/06/15 02:08:54;;;;;;;12.63;9.85;;;17.90;56.80;;;;;;5020719;28;20029;-83
2021/06/15 02:11:21;;;;;;;16.25;10.50;;;17.80;58.90;;;;;;5040933;28;20047;-83
2021/06/15 02:13:47;;;;;;;11.88;10.43;;;17.80;61.80;;;;;;5055468;28;20511;-83
2021/06/15 02:16:13;;;;;;;12.40;10.32;;;17.70;61.90;;;;;;5045582;28;20029;-83
2021/06/15 02:18:39;;;;;;;13.13;11.75;;;17.50;60.10;;;;;;5041769;28;20036;-83
2021/06/15 02:21:07;;;;;;;18.55;12.90;;;17.50;62.80;;;;;;5033263;28;20484;-83
2021/06/15 02:23:33;;;;;;;17.50;12.55;;;17.30;65.20;;;;;;5043913;28;20021;-83
2021/06/15 02:26:00;;;;;;;16.80;13.13;;;17.20;65.30;;;;;;5042953;28;20110;-83
2021/06/15 02:28:25;;;;;;;17.05;13.13;;;17.30;69.70;;;;;;5058471;28;20048;-82
2021/06/15 02:30:51;;;;;;;21.17;14.43;;;17.30;65.90;;;;;;5044290;28;20032;-82
2021/06/15 02:33:24;;;;;;;21.55;16.15;;;17.20;66.10;;;;;;5041154;28;20033;-80
2021/06/15 02:35:56;;;;;;;17.23;14.15;;;17.20;68.70;;;;;;5059005;28;20419;-80
2021/06/15 02:38:30;;;;;;;22.35;16.05;;;17.20;69.80;;;;;;5057136;28;20029;-80
2021/06/15 02:40:59;;;;;;;22.05;15.93;;;17.20;69.20;;;;;;5055003;28;20025;-80
2021/06/15 02:43:24;;;;;;;22.55;17.90;;;17.20;73.10;;;;;;5054493;28;20037;-80
2021/06/15 02:45:51;;;;;;;24.05;18.20;;;17.20;70.10;;;;;;5021467;28;20497;-80
2021/06/15 02:48:16;;;;;;;26.13;18.48;;;17.10;70.50;;;;;;5044038;28;20499;-80
2021/06/15 02:50:42;;;;;;;26.27;18.92;;;17.10;71.90;;;;;;5043775;28;20056;-82
2021/06/15 02:53:13;;;;;;;31.15;19.95;;;17.10;73.20;;;;;;5052464;28;20063;-82
2021/06/15 02:55:46;;;;;;;22.55;18.35;;;17.10;73.90;;;;;;5035319;28;20036;-82
2021/06/15 02:58:11;;;;;;;30.30;19.40;;;17.20;75.10;;;;;;5046542;28;20488;-82
2021/06/15 03:00:37;;;;;;;27.20;19.67;;;17.20;74.60;;;;;;5021793;28;20043;-82
2021/06/15 03:03:04;;;;;;;25.67;18.88;;;17.10;73.80;;;;;;5045417;28;20032;-82
2021/06/15 03:05:30;;;;;;;28.58;18.85;;;17.10;75.00;;;;;;5027619;28;20111;-82
2021/06/15 03:07:55;;;;;;;24.20;19.98;;;17.10;73.90;;;;;;5055726;28;20540;-82
2021/06/15 03:10:22;;;;;;;30.77;21.20;;;17.10;75.40;;;;;;5050461;28;20031;-82
2021/06/15 03:12:56;;;;;;;25.63;20.17;;;17.10;75.90;;;;;;5052234;28;20064;-82
2021/06/15 03:15:35;;;;;;;27.48;20.35;;;17.00;76.50;;;;;;5046301;28;20064;-82
2021/06/15 03:18:04;;;;;;;27.70;19.45;;;17.00;78.80;;;;;;5042031;28;20060;-82
2021/06/15 03:20:30;;;;;;;26.50;20.10;;;17.00;75.90;;;;;;5044819;28;20497;-82
2021/06/15 03:23:07;;;;;;;28.83;20.00;;;17.00;77.00;;;;;;5055601;28;20040;-82
2021/06/15 03:25:33;;;;;;;26.45;19.55;;;17.00;76.90;;;;;;5043149;28;20033;-82
2021/06/15 03:28:05;;;;;;;28.00;21.08;;;17.00;78.10;;;;;;5047549;28;20566;-82
2021/06/15 03:30:31;;;;;;;29.08;19.50;;;17.10;74.30;;;;;;5037441;28;20048;-82
2021/06/15 03:33:04;;;;;;;26.27;19.88;;;17.00;75.30;;;;;;5054888;28;20048;-82
2021/06/15 03:35:31;;;;;;;23.60;20.17;;;17.00;76.20;;;;;;5045348;28;20059;-82
2021/06/15 03:38:01;;;;;;;27.40;20.95;;;16.90;77.90;;;;;;5055820;28;20131;-82
2021/06/15 03:40:27;;;;;;;28.05;21.35;;;16.90;77.40;;;;;;5059857;28;20033;-82
2021/06/15 03:42:53;;;;;;;24.83;17.65;;;16.90;77.20;;;;;;5041525;28;20055;-81
2021/06/15 03:45:19;;;;;;;30.80;22.50;;;16.90;77.10;;;;;;5019733;28;20029;-82
2021/06/15 03:47:48;;;;;;;30.60;21.73;;;17.00;76.90;;;;;;5058801;28;20036;-82
2021/06/15 03:50:14;;;;;;;32.60;21.90;;;16.90;82.70;;;;;;5045656;28;20345;-82
2021/06/15 03:52:40;;;;;;;29.25;22.17;;;16.90;78.10;;;;;;5039165;28;20036;-82
2021/06/15 03:55:08;;;;;;;30.45;22.70;;;16.90;77.60;;;;;;5038151;28;20036;-82
2021/06/15 03:57:40;;;;;;;37.35;23.75;;;16.90;78.60;;;;;;5025367;28;20029;-82
2021/06/15 04:00:07;;;;;;;36.85;22.40;;;17.00;80.30;;;;;;5042279;28;20381;-81
2021/06/15 04:02:33;;;;;;;27.05;22.80;;;17.00;78.60;;;;;;5026866;28;20443;-81
2021/06/15 04:04:58;;;;;;;28.20;21.60;;;17.00;80.00;;;;;;5043017;28;20037;-82
2021/06/15 04:07:24;;;;;;;31.05;21.55;;;17.10;79.20;;;;;;5054706;28;20132;-81
2021/06/15 04:09:51;;;;;;;29.10;21.13;;;17.10;79.90;;;;;;5041181;28;20025;-81
2021/06/15 04:12:16;;;;;;;25.65;20.38;;;17.20;80.30;;;;;;5036275;28;20032;-83
2021/06/15 04:14:43;;;;;;;28.33;20.80;;;17.30;80.60;;;;;;5055622;28;20032;-82
2021/06/15 04:17:09;;;;;;;25.60;19.13;;;17.30;80.50;;;;;;5053714;28;20377;-81
2021/06/15 04:19:41;;;;;;;25.27;18.83;;;17.40;83.20;;;;;;5054151;28;20120;-82
2021/06/15 04:22:07;;;;;;;31.00;19.23;;;17.50;81.70;;;;;;5041323;28;20059;-82
2021/06/15 04:24:33;;;;;;;22.27;17.25;;;17.60;84.10;;;;;;5027536;28;20029;-82
2021/06/15 04:26:59;;;;;;;21.08;15.57;;;17.70;81.20;;;;;;5047551;28;20032;-82
2021/06/15 04:29:31;;;;;;;21.67;15.10;;;17.70;83.90;;;;;;5045300;28;20068;-83
2021/06/15 04:31:59;;;;;;;20.27;15.55;;;17.70;83.40;;;;;;5047330;28;20060;-82
2021/06/15 04:34:25;;;;;;;21.10;14.07;;;17.80;83.10;;;;;;5023826;28;20036;-82
2021/06/15 04:36:54;;;;;;;19.05;13.48;;;17.90;82.20;;;;;;5039731;28;20036;-83
2021/06/15 04:39:20;;;;;;;20.77;13.57;;;18.00;84.20;;;;;;5028517;28;20033;-83
2021/06/15 04:41:55;;;;;;;19.05;14.18;;;18.10;82.20;;;;;;5021263;28;20516;-82
2021/06/15 04:44:22;;;;;;;18.27;13.63;;;18.30;81.80;;;;;;5063829;28;20051;-83
2021/06/15 04:46:50;;;;;;;22.00;13.50;;;18.40;82.60;;;;;;5023644;28;20044;-82
2021/06/15 04:49:41;;;;;;;18.15;14.40;;;18.50;81.80;;;;;;5029243;28;20049;-82
2021/06/15 04:52:07;;;;;;;14.82;12.82;;;18.70;81.10;;;;;;5046420;28;20029;-83
2021/06/15 04:54:38;;;;;;;16.35;12.38;;;18.90;79.90;;;;;;5022928;28;20186;-83
2021/06/15 04:57:07;;;;;;;16.73;12.80;;;19.00;79.90;;;;;;5043838;28;20116;-83
2021/06/15 04:59:33;;;;;;;18.45;12.98;;;19.20;80.30;;;;;;5043030;28;20029;-83
2021/06/15 05:01:59;;;;;;;19.75;13.15;;;19.40;80.20;;;;;;5024261;28;20041;-83
2021/06/15 05:04:25;;;;;;;17.67;13.48;;;19.60;80.40;;;;;;5024273;28;20401;-82
2021/06/15 05:06:51;;;;;;;18.10;13.30;;;19.80;80.70;;;;;;5037504;28;20094;-83
2021/06/15 05:09:16;;;;;;;17.45;12.57;;;20.00;80.00;;;;;;5045610;28;20033;-83
2021/06/15 05:11:42;;;;;;;20.48;12.75;;;20.10;79.10;;;;;;5043484;28;20036;-83
2021/06/15 05:14:08;;;;;;;17.80;12.80;;;20.20;79.60;;;;;;5025763;28;20024;-83
2021/06/15 05:16:36;;;;;;;21.85;11.77;;;20.30;78.90;;;;;;5053604;28;20515;-82
2021/06/15 05:19:02;;;;;;;22.25;12.52;;;20.50;78.80;;;;;;5041378;28;20086;-82
2021/06/15 05:21:49;;;;;;;17.50;12.05;;;20.50;77.80;;;;;;5037893;28;20467;-82
2021/06/15 05:24:48;;;;;;;17.33;11.65;;;20.50;76.90;;;;;;5044213;28;20354;-82
2021/06/15 05:27:14;;;;;;;18.35;12.77;;;20.50;76.20;;;;;;5032228;28;20374;-82
2021/06/15 05:29:40;;;;;;;17.30;10.90;;;20.50;76.00;;;;;;5032918;28;20017;-82
2021/06/15 05:32:07;;;;;;;14.95;11.88;;;20.60;75.20;;;;;;5041588;28;20033;-82
2021/06/15 05:34:34;;;;;;;20.65;11.98;;;20.80;76.40;;;;;;5020570;28;20489;-83
2021/06/15 05:36:59;;;;;;;20.98;13.55;;;20.90;76.50;;;;;;5057472;28;20428;-83
2021/06/15 05:39:25;;;;;;;13.35;9.85;;;21.10;76.60;;;;;;5039688;28;20036;-83
2021/06/15 05:41:51;;;;;;;13.80;9.75;;;21.30;74.40;;;;;;5046026;28;20315;-83
2021/06/15 05:44:16;;;;;;;15.30;12.32;;;21.50;73.20;;;;;;5025622;28;20511;-83
2021/06/15 05:46:42;;;;;;;21.27;12.73;;;21.60;74.40;;;;;;5023947;28;20422;-83
2021/06/15 05:49:07;;;;;;;12.82;10.50;;;21.80;74.60;;;;;;5059091;28;20119;-83
2021/06/15 05:51:33;;;;;;;20.02;11.90;;;22.10;73.10;;;;;;5053802;28;20039;-83
2021/06/15 05:54:02;;;;;;;19.17;12.07;;;22.30;74.80;;;;;;5035734;28;20254;-82
2021/06/15 05:56:31;;;;;;;13.95;10.68;;;22.50;73.10;;;;;;5041859;28;20111;-83
2021/06/15 05:58:56;;;;;;;15.98;13.13;;;22.80;72.00;;;;;;5038579;28;20032;-83
2021/06/15 06:01:22;;;;;;;21.20;13.20;;;23.10;72.70;;;;;;5046085;28;20481;-84
2021/06/15 06:04:02;;;;;;;20.05;13.88;;;23.30;72.00;;;;;;5039724;28;20048;-84
2021/06/15 06:09:11;;;;;;;18.10;13.80;;;23.80;70.60;;;;;;5044637;28;20512;-84
2021/06/15 06:11:37;;;;;;;19.33;14.00;;;24.10;69.40;;;;;;5020778;28;20041;-84
2021/06/15 06:14:02;;;;;;;20.23;13.10;;;24.20;68.80;;;;;;5039817;28;20021;-84
2021/06/15 06:16:28;;;;;;;18.35;12.20;;;24.40;68.90;;;;;;5041398;28;20025;-84
2021/06/15 06:18:53;;;;;;;17.08;11.38;;;24.70;68.80;;;;;;5044842;28;20024;-85
2021/06/15 06:21:19;;;;;;;21.13;14.48;;;24.90;67.60;;;;;;5034178;28;20059;-84
2021/06/15 06:23:44;;;;;;;18.58;12.95;;;25.10;66.70;;;;;;5053490;28;20024;-85
2021/06/15 06:26:10;;;;;;;22.55;13.43;;;25.40;65.90;;;;;;5052955;28;20029;-85
2021/06/15 06:28:35;;;;;;;22.00;12.93;;;25.50;64.30;;;;;;5042872;28;20029;-85
2021/06/15 06:31:01;;;;;;;17.10;10.15;;;25.80;64.00;;;;;;5057202;28;20369;-85
2021/06/15 06:33:27;;;;;;;18.65;12.93;;;25.80;63.90;;;;;;5052883;28;20515;-83
2021/06/15 06:35:53;;;;;;;21.08;12.73;;;26.00;63.30;;;;;;5037224;28;20481;-84
2021/06/15 06:38:18;;;;;;;20.52;12.68;;;26.20;62.80;;;;;;5045883;28;20112;-85
2021/06/15 06:40:45;;;;;;;22.48;13.63;;;26.40;62.30;;;;;;5042582;28;20036;-84
2021/06/15 06:43:11;;;;;;;12.73;9.02;;;26.50;62.20;;;;;;5048500;28;20028;-84
2021/06/15 06:45:36;;;;;;;13.80;11.40;;;26.70;61.80;;;;;;5025668;28;20377;-85
2021/06/15 06:48:08;;;;;;;24.27;12.60;;;27.00;60.60;;;;;;5033809;28;20032;-84
2021/06/15 06:50:34;;;;;;;19.13;12.38;;;27.10;59.60;;;;;;5039326;28;20116;-85
2021/06/15 06:52:59;;;;;;;21.85;12.02;;;27.30;59.80;;;;;;5044158;28;20235;-84
2021/06/15 06:55:25;;;;;;;18.95;12.30;;;27.60;58.80;;;;;;5023755;28;20036;-84
2021/06/15 06:57:50;;;;;;;17.58;12.70;;;27.80;57.70;;;;;;5040676;28;20052;-85
2021/06/15 07:00:16;;;;;;;15.40;10.90;;;27.90;57.60;;;;;;5048160;28;20037;-85
2021/06/15 07:02:42;;;;;;;16.58;10.85;;;27.90;57.00;;;;;;5040960;28;20033;-84
2021/06/15 07:05:08;;;;;;;21.45;11.85;;;28.10;56.40;;;;;;5045019;28;20040;-85
2021/06/15 07:07:34;;;;;;;16.88;12.07;;;28.20;56.50;;;;;;5026464;28;20457;-86
2021/06/15 07:09:59;;;;;;;15.93;10.43;;;28.50;55.60;;;;;;5046358;28;20123;-85
2021/06/15 07:12:25;;;;;;;18.52;12.60;;;28.50;56.00;;;;;;5045176;28;20086;-87
2021/06/15 07:14:50;;;;;;;20.25;12.20;;;28.70;55.60;;;;;;5043617;28;20037;-85
2021/06/15 07:17:16;;;;;;;17.63;11.90;;;28.80;55.30;;;;;;5022275;28;20033;-84
2021/06/15 07:19:44;;;;;;;15.65;11.63;;;28.90;54.80;;;;;;5027552;28;20029;-83
2021/06/15 07:22:09;;;;;;;15.20;11.10;;;29.00;54.30;;;;;;5053346;28;20072;-85
2021/06/15 07:24:35;;;;;;;17.33;11.30;;;29.20;54.20;;;;;;5050688;28;20139;-85
2021/06/15 07:27:01;;;;;;;20.50;11.27;;;29.40;53.00;;;;;;5047703;28;20033;-84
2021/06/15 07:29:26;;;;;;;17.80;10.90;;;29.20;52.10;;;;;;5044609;28;20457;-85
2021/06/15 07:31:52;;;;;;;15.13;10.73;;;29.40;53.10;;;;;;5028250;28;20029;-85
2021/06/15 07:34:18;;;;;;;18.33;10.90;;;29.50;52.60;;;;;;5046263;28;20111;-85
2021/06/15 07:36:44;;;;;;;13.85;9.85;;;29.50;52.70;;;;;;5058561;28;20540;-86
2021/06/15 07:39:09;;;;;;;17.55;10.27;;;29.70;52.40;;;;;;5032639;28;20045;-86
2021/06/15 07:41:35;;;;;;;19.05;11.20;;;29.90;52.90;;;;;;5060216;28;20131;-85
2021/06/15 07:44:00;;;;;;;12.93;9.48;;;30.40;51.40;;;;;;5032787;28;20094;-86
2021/06/15 07:46:26;;;;;;;14.05;11.40;;;30.20;51.50;;;;;;5061790;28;20032;-86
2021/06/15 07:48:53;;;;;;;11.73;8.45;;;30.50;49.70;;;;;;5023866;28;20028;-85
2021/06/15 07:51:19;;;;;;;11.82;10.43;;;30.50;49.80;;;;;;5027853;28;20113;-86
2021/06/15 07:53:44;;;;;;;12.10;10.77;;;30.60;50.00;;;;;;5024645;28;20041;-86
2021/06/15 07:56:10;;;;;;;10.80;7.25;;;30.70;50.10;;;;;;5043593;28;20115;-87
2021/06/15 07:58:36;;;;;;;13.65;9.25;;;30.70;50.40;;;;;;5040764;28;20033;-85
2021/06/15 08:01:01;;;;;;;12.75;8.02;;;30.90;50.30;;;;;;5045455;28;20032;-86
2021/06/15 08:03:27;;;;;;;14.65;10.48;;;31.10;50.40;;;;;;5028809;28;20082;-86
2021/06/15 08:05:53;;;;;;;17.17;9.63;;;31.40;50.00;;;;;;5028788;28;20112;-85
2021/06/15 08:08:18;;;;;;;19.45;7.60;;;31.70;49.50;;;;;;5023879;28;20078;-86
2021/06/15 08:10:44;;;;;;;8.48;4.97;;;32.20;49.20;;;;;;5024212;28;20029;-85
2021/06/15 08:13:09;;;;;;;8.15;5.88;;;32.30;48.70;;;;;;5030307;28;20036;-84
2021/06/15 08:15:35;;;;;;;9.55;7.22;;;32.40;48.70;;;;;;5022574;28;20260;-85
2021/06/15 08:18:01;;;;;;;14.40;9.20;;;32.80;47.80;;;;;;5036402;28;20226;-84
2021/06/15 08:20:26;;;;;;;11.98;7.03;;;33.00;46.30;;;;;;5039598;28;20488;-84
2021/06/15 08:22:52;;;;;;;12.00;7.07;;;33.10;46.70;;;;;;5035895;28;20104;-85
2021/06/15 08:25:17;;;;;;;11.88;7.60;;;33.40;46.40;;;;;;5038612;28;20025;-86
2021/06/15 08:27:43;;;;;;;16.88;8.90;;;33.70;45.90;;;;;;5027644;28;20036;-86
2021/06/15 08:30:09;;;;;;;14.52;7.72;;;34.10;44.80;;;;;;5037492;28;20033;-86
2021/06/15 08:32:34;;;;;;;12.18;8.18;;;34.20;44.30;;;;;;5023107;28;20477;-87
2021/06/15 08:35:00;;;;;;;12.40;7.45;;;34.30;43.50;;;;;;5042236;28;20055;-85
2021/06/15 08:37:26;;;;;;;8.82;6.00;;;34.50;43.00;;;;;;5023755;28;20037;-84
2021/06/15 08:39:51;;;;;;;15.88;6.90;;;34.40;42.70;;;;;;5039746;28;20036;-85
2021/06/15 08:42:17;;;;;;;13.30;6.38;;;34.50;42.00;;;;;;5038044;28;20025;-86
2021/06/15 08:44:43;;;;;;;9.10;6.20;;;34.60;42.90;;;;;;5029673;28;20394;-84
2021/06/15 08:47:08;;;;;;;11.13;6.80;;;34.60;42.30;;;;;;5028659;28;20195;-84
2021/06/15 08:49:34;;;;;;;8.50;6.43;;;34.70;42.30;;;;;;5029880;28;20115;-82
2021/06/15 08:51:59;;;;;;;11.48;6.45;;;34.80;42.50;;;;;;5042768;28;20036;-81
2021/06/15 08:54:25;;;;;;;14.88;7.30;;;34.70;41.90;;;;;;5038970;28;20057;-82
2021/06/15 08:56:50;;;;;;;14.00;6.72;;;34.70;41.90;;;;;;5039398;28;20028;-81
2021/06/15 08:59:26;;;;;;;9.27;4.68;;;34.70;41.60;;;;;;5043887;28;20044;-81
2021/06/15 09:01:53;;;;;;;16.13;6.90;;;34.70;41.90;;;;;;5045599;28;20481;-81
2021/06/15 09:04:19;;;;;;;8.88;6.35;;;35.00;41.50;;;;;;5025980;28;20082;-81
2021/06/15 09:06:45;;;;;;;13.25;6.55;;;35.10;40.70;;;;;;5023495;28;20032;-80
2021/06/15 09:09:10;;;;;;;8.50;5.68;;;35.00;40.30;;;;;;5025805;28;20025;-80
2021/06/15 09:11:52;;;;;;;11.20;6.28;;;35.30;40.10;;;;;;5059771;28;20243;-80
2021/06/15 09:14:36;;;;;;;9.30;5.97;;;35.20;40.00;;;;;;5056960;28;20028;-79
2021/06/15 09:17:02;;;;;;;8.93;4.93;;;35.10;40.30;;;;;;5041061;28;20032;-79
2021/06/15 09:19:27;;;;;;;10.65;6.05;;;35.20;40.30;;;;;;5021461;28;20086;-79
2021/06/15 09:21:57;;;;;;;10.48;6.57;;;35.30;39.90;;;;;;5053789;28;20025;-78
2021/06/15 09:24:24;;;;;;;7.18;3.70;;;35.30;40.00;;;;;;5029454;28;20023;-78
2021/06/15 09:26:55;;;;;;;5.65;4.47;;;35.40;39.90;;;;;;5051560;28;20495;-78
2021/06/15 09:29:39;;;;;;;11.00;5.25;;;35.50;39.60;;;;;;5053652;28;20024;-78
2021/06/15 09:32:05;;;;;;;6.18;3.35;;;35.70;39.30;;;;;;5054774;28;20108;-78
2021/06/15 09:34:31;;;;;;;8.10;3.38;;;35.60;39.40;;;;;;5055463;28;20073;-77
2021/06/15 09:36:56;;;;;;;7.90;3.92;;;35.80;38.90;;;;;;5023066;28;20540;-77
2021/06/15 09:39:22;;;;;;;7.82;5.57;;;36.00;37.80;;;;;;5035632;28;20036;-77
2021/06/15 09:41:48;;;;;;;6.07;3.70;;;36.00;37.60;;;;;;5053926;28;20090;-78
2021/06/15 09:44:29;;;;;;;5.50;3.33;;;36.10;37.40;;;;;;5026906;28;20119;-77
2021/06/15 09:46:59;;;;;;;7.57;3.95;;;36.20;37.30;;;;;;5040615;28;20037;-77
2021/06/15 09:49:27;;;;;;;4.43;3.65;;;36.30;36.90;;;;;;5056634;28;20032;-77
2021/06/15 09:52:19;;;;;;;4.97;3.78;;;36.10;36.40;;;;;;5055319;28;20036;-77
2021/06/15 09:54:47;;;;;;;7.60;4.72;;;36.40;35.40;;;;;;5042942;28;20095;-77
2021/06/15 09:57:37;;;;;;;15.60;5.18;;;36.20;36.10;;;;;;5040891;28;20029;-76
2021/06/15 10:00:14;;;;;;;5.90;4.20;;;36.30;35.90;;;;;;5027714;28;20024;-77
2021/06/15 10:02:57;;;;;;;5.38;3.30;;;35.80;36.10;;;;;;5054340;28;20601;-76
2021/06/15 10:05:36;;;;;;;2.70;2.47;;;35.90;35.80;;;;;;5051718;28;20025;-76
2021/06/15 10:08:06;;;;;;;8.75;4.30;;;35.90;35.20;;;;;;5040669;28;20076;-76
2021/06/15 10:10:36;;;;;;;9.10;3.00;;;35.80;36.20;;;;;;5038183;28;20128;-76
2021/06/15 10:13:01;;;;;;;5.28;3.42;;;35.80;34.70;;;;;;5057016;28;20551;-76
2021/06/15 10:15:28;;;;;;;6.05;3.08;;;35.80;35.80;;;;;;5036974;28;20117;-76
2021/06/15 10:17:54;;;;;;;7.75;3.45;;;35.80;36.00;;;;;;5033897;28;20083;-77
2021/06/15 10:20:21;;;;;;;5.93;3.20;;;35.80;34.60;;;;;;5034036;28;20125;-76
2021/06/15 10:22:46;;;;;;;6.15;2.65;;;35.80;35.20;;;;;;5039542;28;20029;-76
2021/06/15 10:25:13;;;;;;;9.50;3.92;;;35.90;35.40;;;;;;5042701;28;20395;-77
2021/06/15 10:27:39;;;;;;;6.80;2.42;;;35.90;35.40;;;;;;5057279;28;20025;-76
2021/06/15 10:30:06;;;;;;;3.58;2.78;;;35.50;33.70;;;;;;5027613;28;20032;-76
2021/06/15 10:32:31;;;;;;;9.27;2.72;;;35.40;34.60;;;;;;5035625;28;20091;-76
2021/06/15 10:34:59;;;;;;;4.93;2.72;;;35.60;35.20;;;;;;5054540;28;20044;-77
2021/06/15 10:37:31;;;;;;;4.20;2.97;;;35.70;34.30;;;;;;5054418;28;20112;-76
2021/06/15 10:39:57;;;;;;;6.05;3.00;;;35.90;34.40;;;;;;5057767;28;20032;-75
2021/06/15 10:42:22;;;;;;;2.92;2.00;;;35.90;33.80;;;;;;5037890;28;20032;-77
2021/06/15 10:45:16;;;;;;;4.57;2.20;;;35.80;34.00;;;;;;5046964;28;20056;-76
2021/06/15 10:48:21;;;;;;;4.30;1.83;;;35.80;34.60;;;;;;5054556;28;20061;-76
2021/06/15 10:50:48;;;;;;;4.40;2.38;;;35.90;33.30;;;;;;5045093;28;20087;-76
2021/06/15 10:53:17;;;;;;;5.15;1.77;;;36.00;32.70;;;;;;5061384;28;20025;-75
2021/06/15 10:55:59;;;;;;;4.28;1.90;;;36.20;32.90;;;;;;5057088;28;20028;-75
2021/06/15 10:58:47;;;;;;;4.60;2.13;;;36.20;33.40;;;;;;5026574;28;20036;-76
2021/06/15 11:01:29;;;;;;;7.38;2.65;;;36.40;33.20;;;;;;5061408;28;20116;-76
2021/06/15 11:04:07;;;;;;;2.50;2.25;;;36.30;32.70;;;;;;5035830;28;20045;-75
2021/06/15 11:06:33;;;;;;;6.93;2.29;;;36.30;32.20;;;;;;4354340;28;10000970;-75
2021/06/15 11:09:17;;;;;;;2.35;1.50;;;36.50;32.00;;;;;;5058393;28;20067;-76
2021/06/15 11:11:45;;;;;;;5.47;2.28;;;36.50;32.50;;;;;;5053224;28;20063;-76
2021/06/15 11:14:18;;;;;;;2.58;1.73;;;36.90;29.40;;;;;;5039024;28;20357;-75
2021/06/15 11:16:47;;;;;;;5.70;2.50;;;36.80;30.20;;;;;;5062917;28;20055;-75
2021/06/15 11:19:13;;;;;;;4.30;2.00;;;36.70;29.20;;;;;;5057680;28;20078;-76
2021/06/15 11:21:49;;;;;;;3.65;2.33;;;36.60;31.10;;;;;;5055925;28;20512;-75
2021/06/15 11:24:34;;;;;;;6.05;2.53;;;36.70;30.70;;;;;;5040745;28;20439;-75
2021/06/15 11:27:23;;;;;;;6.00;2.33;;;36.90;30.00;;;;;;5034826;28;20025;-76
2021/06/15 11:29:50;;;;;;;5.28;2.53;;;36.90;30.70;;;;;;5060987;28;20029;-75
2021/06/15 11:32:19;;;;;;;7.93;2.30;;;37.10;30.80;;;;;;5039980;28;20064;-76
2021/06/15 11:34:58;;;;;;;8.13;2.45;;;37.40;31.10;;;;;;5056975;28;20156;-76
2021/06/15 11:37:27;;;;;;;2.67;1.40;;;37.50;30.00;;;;;;5056065;28;20037;-76
2021/06/15 11:39:53;;;;;;;8.98;2.72;;;37.50;31.30;;;;;;5052140;28;20060;-76
2021/06/15 11:42:25;;;;;;;7.53;2.92;;;37.40;30.80;;;;;;5022291;28;20474;-76
2021/06/15 11:45:12;;;;;;;4.07;2.58;;;37.40;30.90;;;;;;5057585;28;20050;-76
2021/06/15 11:47:55;;;;;;;8.30;2.85;;;37.40;31.80;;;;;;5054582;28;20495;-76
2021/06/15 11:50:30;;;;;;;3.40;1.52;;;37.90;32.00;;;;;;5050091;28;20438;-76
2021/06/15 11:53:02;;;;;;;;;;;38.10;32.40;;;;;;5055393;28;20098;-76
2021/06/15 11:55:32;;;;;;;6.90;2.67;;;38.30;32.50;;;;;;5055843;28;19919;-76
2021/06/15 11:58:12;;;;;;;3.75;2.17;;;38.60;31.00;;;;;;5061520;28;20500;-75
2021/06/15 12:00:43;;;;;;;5.20;3.05;;;38.80;30.50;;;;;;5028434;28;20032;-75
2021/06/15 12:03:19;;;;;;;4.80;2.42;;;38.90;30.60;;;;;;5036711;28;20501;-76
2021/06/15 12:05:46;;;;;;;5.45;2.72;;;39.00;30.60;;;;;;5034176;28;20378;-76
2021/06/15 12:08:12;;;;;;;10.15;3.15;;;39.30;29.70;;;;;;5038007;28;20025;-77
2021/06/15 12:10:38;;;;;;;1.75;1.27;;;39.40;29.30;;;;;;5038012;28;20059;-76
2021/06/15 12:13:11;;;;;;;3.35;1.50;;;39.20;29.60;;;;;;5039464;28;20111;-76
2021/06/15 12:15:51;;;;;;;3.15;1.73;;;39.00;29.90;;;;;;5027075;28;20037;-76
2021/06/15 12:18:23;;;;;;;4.38;2.05;;;38.90;30.20;;;;;;5039762;28;20447;-76
2021/06/15 12:20:56;;;;;;;7.03;2.60;;;38.70;29.70;;;;;;5054038;28;20498;-76
2021/06/15 12:23:43;;;;;;;4.28;2.03;;;38.60;29.70;;;;;;5027968;28;20029;-76
2021/06/15 12:26:10;;;;;;;6.65;2.20;;;38.90;29.60;;;;;;5056444;28;20040;-76
2021/06/15 12:28:38;;;;;;;4.10;1.92;;;38.80;29.30;;;;;;5055703;28;20385;-76
2021/06/15 12:31:10;;;;;;;3.53;1.90;;;38.60;29.10;;;;;;5040586;28;20085;-76
2021/06/15 12:33:36;;;;;;;4.18;1.60;;;38.40;29.30;;;;;;5058852;28;20040;-76
2021/06/15 12:36:06;;;;;;;7.53;1.63;;;38.10;29.80;;;;;;5061723;28;20051;-76
2021/06/15 12:38:32;;;;;;;1.95;1.40;;;38.10;30.00;;;;;;5026479;28;20077;-76
2021/06/15 12:40:58;;;;;;;7.43;1.67;;;38.10;29.90;;;;;;5043300;28;20560;-75
2021/06/15 12:43:25;;;;;;;2.42;1.25;;;38.00;28.70;;;;;;5041349;28;20046;-76
2021/06/15 12:46:27;;;;;;;4.65;1.60;;;38.00;29.40;;;;;;5027569;28;20044;-77
2021/06/15 12:49:19;;;;;;;3.88;1.40;;;38.10;28.70;;;;;;5048619;28;20117;-76